sensor_id;sensor_type;location;lat;lon;timestamp;P1;durP1;ratioP1;P2;durP2;ratioP2
18512;SDS011;9385;48.380;9.744;2022-12-11T00:00:36;16.48;;;8.93;;
18512;SDS011;9385;48.380;9.744;2022-12-11T00:03:04;12.80;;;7.70;;
18512;SDS011;9385;48.380;9.744;2022-12-11T00:05:33;14.68;;;8.68;;
18512;SDS011;9385;48.380;9.744;2022-12-11T00:08:00;15.07;;;8.35;;
18512;SDS011;9385;48.380;9.744;2022-12-11T00:10:27;16.40;;;8.02;;
18512;SDS011;9385;48.380;9.744;2022-12-11T00:12:54;16.88;;;9.15;;
18512;SDS011;9385;48.380;9.744;2022-12-11T00:15:20;18.52;;;9.38;;
18512;SDS011;9385;48.380;9.744;2022-12-11T00:17:47;13.70;;;8.00;;
18512;SDS011;9385;48.380;9.744;2022-12-11T00:20:14;15.27;;;8.20;;
18512;SDS011;9385;48.380;9.744;2022-12-11T00:22:43;15.82;;;8.90;;
18512;SDS011;9385;48.380;9.744;2022-12-11T00:25:10;14.55;;;8.15;;
18512;SDS011;9385;48.380;9.744;2022-12-11T00:27:37;13.60;;;7.70;;
18512;SDS011;9385;48.380;9.744;2022-12-11T00:30:04;15.00;;;7.97;;
18512;SDS011;9385;48.380;9.744;2022-12-11T00:32:32;15.73;;;8.30;;
18512;SDS011;9385;48.380;9.744;2022-12-11T00:34:59;14.48;;;7.72;;
18512;SDS011;9385;48.380;9.744;2022-12-11T00:37:26;14.88;;;8.30;;
18512;SDS011;9385;48.380;9.744;2022-12-11T00:39:54;13.52;;;7.55;;
18512;SDS011;9385;48.380;9.744;2022-12-11T00:42:21;12.65;;;7.32;;
18512;SDS011;9385;48.380;9.744;2022-12-11T00:44:48;15.25;;;8.38;;
18512;SDS011;9385;48.380;9.744;2022-12-11T00:47:16;13.95;;;7.57;;
18512;SDS011;9385;48.380;9.744;2022-12-11T00:49:43;12.75;;;6.70;;
18512;SDS011;9385;48.380;9.744;2022-12-11T00:52:10;14.93;;;8.02;;
18512;SDS011;9385;48.380;9.744;2022-12-11T00:54:36;12.07;;;7.35;;
18512;SDS011;9385;48.380;9.744;2022-12-11T00:57:05;12.85;;;7.40;;
18512;SDS011;9385;48.380;9.744;2022-12-11T00:59:32;12.65;;;6.95;;
18512;SDS011;9385;48.380;9.744;2022-12-11T01:01:59;13.73;;;7.07;;
18512;SDS011;9385;48.380;9.744;2022-12-11T01:04:26;13.65;;;7.43;;
18512;SDS011;9385;48.380;9.744;2022-12-11T01:06:53;13.98;;;7.43;;
18512;SDS011;9385;48.380;9.744;2022-12-11T01:09:19;13.60;;;7.22;;
18512;SDS011;9385;48.380;9.744;2022-12-11T01:12:05;10.77;;;6.27;;
18512;SDS011;9385;48.380;9.744;2022-12-11T01:14:32;12.73;;;7.13;;
18512;SDS011;9385;48.380;9.744;2022-12-11T01:16:59;14.32;;;7.25;;
18512;SDS011;9385;48.380;9.744;2022-12-11T01:19:26;14.20;;;7.88;;
18512;SDS011;9385;48.380;9.744;2022-12-11T01:21:53;14.15;;;7.53;;
18512;SDS011;9385;48.380;9.744;2022-12-11T01:24:20;12.27;;;7.07;;
18512;SDS011;9385;48.380;9.744;2022-12-11T01:26:47;15.20;;;8.15;;
18512;SDS011;9385;48.380;9.744;2022-12-11T01:29:15;14.10;;;8.05;;
18512;SDS011;9385;48.380;9.744;2022-12-11T01:31:42;12.93;;;7.40;;
18512;SDS011;9385;48.380;9.744;2022-12-11T01:34:09;12.27;;;7.22;;
18512;SDS011;9385;48.380;9.744;2022-12-11T01:36:36;16.13;;;7.72;;
18512;SDS011;9385;48.380;9.744;2022-12-11T01:39:03;21.02;;;10.55;;
18512;SDS011;9385;48.380;9.744;2022-12-11T01:41:30;15.05;;;8.10;;
18512;SDS011;9385;48.380;9.744;2022-12-11T01:44:02;15.82;;;8.68;;
18512;SDS011;9385;48.380;9.744;2022-12-11T01:46:32;16.90;;;8.93;;
18512;SDS011;9385;48.380;9.744;2022-12-11T01:49:01;18.65;;;10.20;;
18512;SDS011;9385;48.380;9.744;2022-12-11T01:51:31;19.88;;;10.70;;
18512;SDS011;9385;48.380;9.744;2022-12-11T01:54:03;18.50;;;9.90;;
18512;SDS011;9385;48.380;9.744;2022-12-11T01:56:33;18.08;;;10.60;;
18512;SDS011;9385;48.380;9.744;2022-12-11T01:59:02;19.65;;;10.50;;
18512;SDS011;9385;48.380;9.744;2022-12-11T02:01:33;18.77;;;10.63;;
18512;SDS011;9385;48.380;9.744;2022-12-11T02:04:03;17.67;;;9.55;;
18512;SDS011;9385;48.380;9.744;2022-12-11T02:06:34;16.02;;;8.40;;
18512;SDS011;9385;48.380;9.744;2022-12-11T02:09:02;14.30;;;8.48;;
18512;SDS011;9385;48.380;9.744;2022-12-11T02:11:34;15.43;;;8.80;;
18512;SDS011;9385;48.380;9.744;2022-12-11T02:14:14;18.20;;;9.63;;
18512;SDS011;9385;48.380;9.744;2022-12-11T02:16:52;18.35;;;9.88;;
18512;SDS011;9385;48.380;9.744;2022-12-11T02:19:33;17.40;;;9.40;;
18512;SDS011;9385;48.380;9.744;2022-12-11T02:22:12;17.63;;;9.55;;
18512;SDS011;9385;48.380;9.744;2022-12-11T02:24:51;15.52;;;8.80;;
18512;SDS011;9385;48.380;9.744;2022-12-11T02:27:28;15.65;;;8.75;;
18512;SDS011;9385;48.380;9.744;2022-12-11T02:30:04;15.88;;;8.23;;
18512;SDS011;9385;48.380;9.744;2022-12-11T02:32:34;13.25;;;7.93;;
18512;SDS011;9385;48.380;9.744;2022-12-11T02:35:06;13.73;;;7.97;;
18512;SDS011;9385;48.380;9.744;2022-12-11T02:37:38;14.18;;;8.13;;
18512;SDS011;9385;48.380;9.744;2022-12-11T02:40:09;13.30;;;7.55;;
18512;SDS011;9385;48.380;9.744;2022-12-11T02:42:39;15.00;;;8.00;;
18512;SDS011;9385;48.380;9.744;2022-12-11T02:45:10;15.80;;;8.63;;
18512;SDS011;9385;48.380;9.744;2022-12-11T02:47:39;15.93;;;9.00;;
18512;SDS011;9385;48.380;9.744;2022-12-11T02:50:10;18.20;;;10.25;;
18512;SDS011;9385;48.380;9.744;2022-12-11T02:52:41;21.27;;;10.32;;
18512;SDS011;9385;48.380;9.744;2022-12-11T02:55:08;16.70;;;8.93;;
18512;SDS011;9385;48.380;9.744;2022-12-11T02:57:41;16.15;;;8.50;;
18512;SDS011;9385;48.380;9.744;2022-12-11T03:00:12;15.43;;;8.90;;
18512;SDS011;9385;48.380;9.744;2022-12-11T03:02:40;14.98;;;8.52;;
18512;SDS011;9385;48.380;9.744;2022-12-11T03:05:09;16.52;;;8.88;;
18512;SDS011;9385;48.380;9.744;2022-12-11T03:07:38;14.97;;;8.80;;
18512;SDS011;9385;48.380;9.744;2022-12-11T03:10:08;15.75;;;8.25;;
18512;SDS011;9385;48.380;9.744;2022-12-11T03:12:39;14.18;;;8.80;;
18512;SDS011;9385;48.380;9.744;2022-12-11T03:15:09;13.93;;;8.07;;
18512;SDS011;9385;48.380;9.744;2022-12-11T03:17:41;15.13;;;7.73;;
18512;SDS011;9385;48.380;9.744;2022-12-11T03:20:18;12.95;;;7.55;;
18512;SDS011;9385;48.380;9.744;2022-12-11T03:22:52;13.80;;;8.02;;
18512;SDS011;9385;48.380;9.744;2022-12-11T03:25:28;14.73;;;8.48;;
18512;SDS011;9385;48.380;9.744;2022-12-11T03:28:02;15.30;;;8.10;;
18512;SDS011;9385;48.380;9.744;2022-12-11T03:30:36;15.93;;;8.60;;
18512;SDS011;9385;48.380;9.744;2022-12-11T03:33:05;14.17;;;8.07;;
18512;SDS011;9385;48.380;9.744;2022-12-11T03:35:36;14.13;;;7.95;;
18512;SDS011;9385;48.380;9.744;2022-12-11T03:38:07;15.00;;;8.35;;
18512;SDS011;9385;48.380;9.744;2022-12-11T03:40:37;16.33;;;8.77;;
18512;SDS011;9385;48.380;9.744;2022-12-11T03:43:06;18.70;;;10.18;;
18512;SDS011;9385;48.380;9.744;2022-12-11T03:45:37;18.35;;;10.02;;
18512;SDS011;9385;48.380;9.744;2022-12-11T03:48:05;18.00;;;10.20;;
18512;SDS011;9385;48.380;9.744;2022-12-11T03:50:35;19.00;;;10.23;;
18512;SDS011;9385;48.380;9.744;2022-12-11T03:53:02;18.20;;;9.80;;
18512;SDS011;9385;48.380;9.744;2022-12-11T03:55:30;19.23;;;10.32;;
18512;SDS011;9385;48.380;9.744;2022-12-11T03:57:58;18.83;;;10.18;;
18512;SDS011;9385;48.380;9.744;2022-12-11T04:00:25;17.55;;;10.18;;
18512;SDS011;9385;48.380;9.744;2022-12-11T04:02:54;18.27;;;10.02;;
18512;SDS011;9385;48.380;9.744;2022-12-11T04:05:40;19.20;;;9.93;;
18512;SDS011;9385;48.380;9.744;2022-12-11T04:08:08;19.00;;;10.60;;
18512;SDS011;9385;48.380;9.744;2022-12-11T04:10:36;18.55;;;10.18;;
18512;SDS011;9385;48.380;9.744;2022-12-11T04:13:03;17.70;;;9.80;;
18512;SDS011;9385;48.380;9.744;2022-12-11T04:15:30;17.95;;;10.18;;
18512;SDS011;9385;48.380;9.744;2022-12-11T04:17:57;18.30;;;10.40;;
18512;SDS011;9385;48.380;9.744;2022-12-11T04:20:41;17.40;;;9.63;;
18512;SDS011;9385;48.380;9.744;2022-12-11T04:23:26;18.37;;;10.17;;
18512;SDS011;9385;48.380;9.744;2022-12-11T04:26:10;19.63;;;10.80;;
18512;SDS011;9385;48.380;9.744;2022-12-11T04:28:39;19.07;;;10.07;;
18512;SDS011;9385;48.380;9.744;2022-12-11T04:31:09;18.98;;;10.18;;
18512;SDS011;9385;48.380;9.744;2022-12-11T04:33:38;17.17;;;9.60;;
18512;SDS011;9385;48.380;9.744;2022-12-11T04:36:06;18.60;;;10.25;;
18512;SDS011;9385;48.380;9.744;2022-12-11T04:38:34;22.45;;;11.20;;
18512;SDS011;9385;48.380;9.744;2022-12-11T04:41:02;26.42;;;11.77;;
18512;SDS011;9385;48.380;9.744;2022-12-11T04:43:30;26.58;;;11.82;;
18512;SDS011;9385;48.380;9.744;2022-12-11T04:46:01;19.35;;;9.77;;
18512;SDS011;9385;48.380;9.744;2022-12-11T04:48:28;14.48;;;7.30;;
18512;SDS011;9385;48.380;9.744;2022-12-11T04:50:57;15.48;;;7.30;;
18512;SDS011;9385;48.380;9.744;2022-12-11T04:53:24;13.87;;;6.87;;
18512;SDS011;9385;48.380;9.744;2022-12-11T04:55:51;15.68;;;7.75;;
18512;SDS011;9385;48.380;9.744;2022-12-11T04:58:18;18.30;;;8.50;;
18512;SDS011;9385;48.380;9.744;2022-12-11T05:00:45;19.27;;;8.93;;
18512;SDS011;9385;48.380;9.744;2022-12-11T05:03:12;16.92;;;8.52;;
18512;SDS011;9385;48.380;9.744;2022-12-11T05:05:39;14.75;;;7.45;;
18512;SDS011;9385;48.380;9.744;2022-12-11T05:08:07;8.73;;;5.10;;
18512;SDS011;9385;48.380;9.744;2022-12-11T05:10:34;6.80;;;4.15;;
18512;SDS011;9385;48.380;9.744;2022-12-11T05:13:01;6.82;;;4.35;;
18512;SDS011;9385;48.380;9.744;2022-12-11T05:15:28;7.72;;;4.40;;
18512;SDS011;9385;48.380;9.744;2022-12-11T05:17:55;7.80;;;4.40;;
18512;SDS011;9385;48.380;9.744;2022-12-11T05:20:22;7.18;;;4.28;;
18512;SDS011;9385;48.380;9.744;2022-12-11T05:22:49;8.02;;;4.50;;
18512;SDS011;9385;48.380;9.744;2022-12-11T05:25:17;10.77;;;5.72;;
18512;SDS011;9385;48.380;9.744;2022-12-11T05:27:44;7.05;;;4.13;;
18512;SDS011;9385;48.380;9.744;2022-12-11T05:30:11;7.00;;;4.05;;
18512;SDS011;9385;48.380;9.744;2022-12-11T05:32:38;6.78;;;4.00;;
18512;SDS011;9385;48.380;9.744;2022-12-11T05:35:05;7.80;;;4.40;;
18512;SDS011;9385;48.380;9.744;2022-12-11T05:37:32;7.68;;;4.07;;
18512;SDS011;9385;48.380;9.744;2022-12-11T05:39:59;8.00;;;4.40;;
18512;SDS011;9385;48.380;9.744;2022-12-11T05:42:27;7.93;;;4.47;;
18512;SDS011;9385;48.380;9.744;2022-12-11T05:44:54;8.48;;;4.90;;
18512;SDS011;9385;48.380;9.744;2022-12-11T05:47:21;10.88;;;6.00;;
18512;SDS011;9385;48.380;9.744;2022-12-11T05:49:49;12.32;;;6.53;;
18512;SDS011;9385;48.380;9.744;2022-12-11T05:52:16;10.40;;;5.82;;
18512;SDS011;9385;48.380;9.744;2022-12-11T05:54:43;9.77;;;5.20;;
18512;SDS011;9385;48.380;9.744;2022-12-11T05:57:13;10.07;;;5.82;;
18512;SDS011;9385;48.380;9.744;2022-12-11T05:59:41;11.33;;;5.37;;
18512;SDS011;9385;48.380;9.744;2022-12-11T06:02:09;8.52;;;4.70;;
18512;SDS011;9385;48.380;9.744;2022-12-11T06:04:37;10.60;;;5.28;;
18512;SDS011;9385;48.380;9.744;2022-12-11T06:07:03;9.18;;;5.22;;
18512;SDS011;9385;48.380;9.744;2022-12-11T06:09:30;8.88;;;5.15;;
18512;SDS011;9385;48.380;9.744;2022-12-11T06:11:57;10.23;;;5.43;;
18512;SDS011;9385;48.380;9.744;2022-12-11T06:14:24;9.15;;;5.22;;
18512;SDS011;9385;48.380;9.744;2022-12-11T06:16:52;10.00;;;5.18;;
18512;SDS011;9385;48.380;9.744;2022-12-11T06:19:19;9.05;;;5.32;;
18512;SDS011;9385;48.380;9.744;2022-12-11T06:21:46;9.85;;;5.20;;
18512;SDS011;9385;48.380;9.744;2022-12-11T06:24:13;11.73;;;5.55;;
18512;SDS011;9385;48.380;9.744;2022-12-11T06:26:40;8.95;;;4.97;;
18512;SDS011;9385;48.380;9.744;2022-12-11T06:29:07;10.48;;;4.90;;
18512;SDS011;9385;48.380;9.744;2022-12-11T06:31:34;7.47;;;4.30;;
18512;SDS011;9385;48.380;9.744;2022-12-11T06:34:02;7.68;;;4.22;;
18512;SDS011;9385;48.380;9.744;2022-12-11T06:36:30;7.13;;;3.90;;
18512;SDS011;9385;48.380;9.744;2022-12-11T06:38:57;7.30;;;4.22;;
18512;SDS011;9385;48.380;9.744;2022-12-11T06:41:23;6.65;;;4.22;;
18512;SDS011;9385;48.380;9.744;2022-12-11T06:43:51;7.65;;;4.53;;
18512;SDS011;9385;48.380;9.744;2022-12-11T06:46:18;7.32;;;4.60;;
18512;SDS011;9385;48.380;9.744;2022-12-11T06:48:45;7.83;;;4.60;;
18512;SDS011;9385;48.380;9.744;2022-12-11T06:51:15;9.83;;;5.43;;
18512;SDS011;9385;48.380;9.744;2022-12-11T06:53:43;9.52;;;5.13;;
18512;SDS011;9385;48.380;9.744;2022-12-11T06:56:11;9.05;;;4.97;;
18512;SDS011;9385;48.380;9.744;2022-12-11T06:58:40;8.15;;;4.53;;
18512;SDS011;9385;48.380;9.744;2022-12-11T07:01:12;8.60;;;4.73;;
18512;SDS011;9385;48.380;9.744;2022-12-11T07:03:42;10.32;;;5.47;;
18512;SDS011;9385;48.380;9.744;2022-12-11T07:06:09;10.38;;;5.32;;
18512;SDS011;9385;48.380;9.744;2022-12-11T07:08:38;11.23;;;6.03;;
18512;SDS011;9385;48.380;9.744;2022-12-11T07:11:06;12.82;;;6.75;;
18512;SDS011;9385;48.380;9.744;2022-12-11T07:13:35;11.63;;;6.60;;
18512;SDS011;9385;48.380;9.744;2022-12-11T07:16:02;10.43;;;5.53;;
18512;SDS011;9385;48.380;9.744;2022-12-11T07:18:34;8.40;;;4.80;;
18512;SDS011;9385;48.380;9.744;2022-12-11T07:21:03;8.75;;;4.57;;
18512;SDS011;9385;48.380;9.744;2022-12-11T07:23:30;8.77;;;4.83;;
18512;SDS011;9385;48.380;9.744;2022-12-11T07:26:01;12.75;;;6.85;;
18512;SDS011;9385;48.380;9.744;2022-12-11T07:28:30;15.55;;;7.88;;
18512;SDS011;9385;48.380;9.744;2022-12-11T07:30:57;15.88;;;8.93;;
18512;SDS011;9385;48.380;9.744;2022-12-11T07:33:23;13.80;;;7.47;;
18512;SDS011;9385;48.380;9.744;2022-12-11T07:35:50;13.32;;;6.53;;
18512;SDS011;9385;48.380;9.744;2022-12-11T07:38:17;11.40;;;6.37;;
18512;SDS011;9385;48.380;9.744;2022-12-11T07:40:44;13.30;;;6.83;;
18512;SDS011;9385;48.380;9.744;2022-12-11T07:43:13;17.00;;;8.18;;
18512;SDS011;9385;48.380;9.744;2022-12-11T07:45:40;13.98;;;7.35;;
18512;SDS011;9385;48.380;9.744;2022-12-11T07:48:06;12.52;;;6.05;;
18512;SDS011;9385;48.380;9.744;2022-12-11T07:50:33;12.57;;;6.47;;
18512;SDS011;9385;48.380;9.744;2022-12-11T07:53:00;13.23;;;6.97;;
18512;SDS011;9385;48.380;9.744;2022-12-11T07:55:28;14.23;;;7.03;;
18512;SDS011;9385;48.380;9.744;2022-12-11T07:57:55;12.52;;;6.47;;
18512;SDS011;9385;48.380;9.744;2022-12-11T08:00:23;13.38;;;6.60;;
18512;SDS011;9385;48.380;9.744;2022-12-11T08:02:50;11.80;;;6.45;;
18512;SDS011;9385;48.380;9.744;2022-12-11T08:05:17;11.48;;;6.03;;
18512;SDS011;9385;48.380;9.744;2022-12-11T08:07:44;14.75;;;7.43;;
18512;SDS011;9385;48.380;9.744;2022-12-11T08:10:12;14.13;;;7.40;;
18512;SDS011;9385;48.380;9.744;2022-12-11T08:12:39;14.20;;;7.60;;
18512;SDS011;9385;48.380;9.744;2022-12-11T08:15:06;15.02;;;7.50;;
18512;SDS011;9385;48.380;9.744;2022-12-11T08:17:36;17.73;;;7.63;;
18512;SDS011;9385;48.380;9.744;2022-12-11T08:20:03;15.75;;;8.05;;
18512;SDS011;9385;48.380;9.744;2022-12-11T08:22:30;15.02;;;8.05;;
18512;SDS011;9385;48.380;9.744;2022-12-11T08:24:57;14.20;;;7.40;;
18512;SDS011;9385;48.380;9.744;2022-12-11T08:27:24;15.07;;;7.75;;
18512;SDS011;9385;48.380;9.744;2022-12-11T08:29:51;15.77;;;8.32;;
18512;SDS011;9385;48.380;9.744;2022-12-11T08:32:18;14.63;;;8.00;;
18512;SDS011;9385;48.380;9.744;2022-12-11T08:34:46;14.43;;;7.72;;
18512;SDS011;9385;48.380;9.744;2022-12-11T08:37:13;15.82;;;7.72;;
18512;SDS011;9385;48.380;9.744;2022-12-11T08:39:41;16.02;;;8.02;;
18512;SDS011;9385;48.380;9.744;2022-12-11T08:42:09;14.48;;;7.50;;
18512;SDS011;9385;48.380;9.744;2022-12-11T08:44:35;14.25;;;7.50;;
18512;SDS011;9385;48.380;9.744;2022-12-11T08:47:02;13.80;;;7.72;;
18512;SDS011;9385;48.380;9.744;2022-12-11T08:49:29;13.63;;;7.37;;
18512;SDS011;9385;48.380;9.744;2022-12-11T08:51:58;11.80;;;6.57;;
18512;SDS011;9385;48.380;9.744;2022-12-11T08:54:24;12.52;;;7.07;;
18512;SDS011;9385;48.380;9.744;2022-12-11T08:56:51;13.70;;;7.22;;
18512;SDS011;9385;48.380;9.744;2022-12-11T08:59:18;11.77;;;6.50;;
18512;SDS011;9385;48.380;9.744;2022-12-11T09:01:45;12.93;;;7.28;;
18512;SDS011;9385;48.380;9.744;2022-12-11T09:04:12;13.60;;;7.50;;
18512;SDS011;9385;48.380;9.744;2022-12-11T09:06:39;13.05;;;7.30;;
18512;SDS011;9385;48.380;9.744;2022-12-11T09:09:07;14.77;;;8.02;;
18512;SDS011;9385;48.380;9.744;2022-12-11T09:11:35;15.65;;;8.18;;
18512;SDS011;9385;48.380;9.744;2022-12-11T09:14:02;13.95;;;7.75;;
18512;SDS011;9385;48.380;9.744;2022-12-11T09:16:30;15.10;;;8.35;;
18512;SDS011;9385;48.380;9.744;2022-12-11T09:18:58;15.00;;;8.13;;
18512;SDS011;9385;48.380;9.744;2022-12-11T09:21:26;17.42;;;8.70;;
18512;SDS011;9385;48.380;9.744;2022-12-11T09:23:56;15.23;;;8.27;;
18512;SDS011;9385;48.380;9.744;2022-12-11T09:26:26;14.23;;;7.70;;
18512;SDS011;9385;48.380;9.744;2022-12-11T09:28:54;15.30;;;7.90;;
18512;SDS011;9385;48.380;9.744;2022-12-11T09:31:22;15.65;;;8.68;;
18512;SDS011;9385;48.380;9.744;2022-12-11T09:33:51;16.17;;;8.70;;
18512;SDS011;9385;48.380;9.744;2022-12-11T09:36:20;20.15;;;11.10;;
18512;SDS011;9385;48.380;9.744;2022-12-11T09:38:48;18.88;;;9.30;;
18512;SDS011;9385;48.380;9.744;2022-12-11T09:41:21;19.63;;;10.25;;
18512;SDS011;9385;48.380;9.744;2022-12-11T09:44:01;22.35;;;10.57;;
18512;SDS011;9385;48.380;9.744;2022-12-11T09:46:41;22.80;;;10.50;;
18512;SDS011;9385;48.380;9.744;2022-12-11T09:49:11;33.77;;;11.20;;
18512;SDS011;9385;48.380;9.744;2022-12-11T09:51:48;22.00;;;10.60;;
18512;SDS011;9385;48.380;9.744;2022-12-11T09:54:21;20.60;;;10.80;;
18512;SDS011;9385;48.380;9.744;2022-12-11T09:56:51;17.98;;;9.95;;
18512;SDS011;9385;48.380;9.744;2022-12-11T09:59:26;17.27;;;9.10;;
18512;SDS011;9385;48.380;9.744;2022-12-11T10:02:01;12.98;;;7.78;;
18512;SDS011;9385;48.380;9.744;2022-12-11T10:04:44;14.32;;;7.88;;
18512;SDS011;9385;48.380;9.744;2022-12-11T10:07:18;15.02;;;7.93;;
18512;SDS011;9385;48.380;9.744;2022-12-11T10:09:52;15.52;;;8.73;;
18512;SDS011;9385;48.380;9.744;2022-12-11T10:12:28;15.57;;;8.32;;
18512;SDS011;9385;48.380;9.744;2022-12-11T10:15:13;14.57;;;7.95;;
18512;SDS011;9385;48.380;9.744;2022-12-11T10:17:49;13.05;;;7.22;;
18512;SDS011;9385;48.380;9.744;2022-12-11T10:20:21;14.98;;;7.65;;
18512;SDS011;9385;48.380;9.744;2022-12-11T10:22:51;16.10;;;8.85;;
18512;SDS011;9385;48.380;9.744;2022-12-11T10:25:19;18.45;;;8.90;;
18512;SDS011;9385;48.380;9.744;2022-12-11T10:27:51;15.48;;;8.63;;
18512;SDS011;9385;48.380;9.744;2022-12-11T10:30:18;14.82;;;8.25;;
18512;SDS011;9385;48.380;9.744;2022-12-11T10:32:51;16.20;;;8.73;;
18512;SDS011;9385;48.380;9.744;2022-12-11T10:35:28;15.32;;;8.48;;
18512;SDS011;9385;48.380;9.744;2022-12-11T10:38:01;14.45;;;8.00;;
18512;SDS011;9385;48.380;9.744;2022-12-11T10:40:40;14.93;;;8.50;;
18512;SDS011;9385;48.380;9.744;2022-12-11T10:43:12;16.25;;;8.18;;
18512;SDS011;9385;48.380;9.744;2022-12-11T10:45:48;19.25;;;8.63;;
18512;SDS011;9385;48.380;9.744;2022-12-11T10:48:16;12.55;;;7.15;;
18512;SDS011;9385;48.380;9.744;2022-12-11T10:50:43;15.70;;;7.15;;
18512;SDS011;9385;48.380;9.744;2022-12-11T10:53:20;13.07;;;6.78;;
18512;SDS011;9385;48.380;9.744;2022-12-11T10:55:48;13.75;;;6.80;;
18512;SDS011;9385;48.380;9.744;2022-12-11T10:58:17;17.42;;;8.68;;
18512;SDS011;9385;48.380;9.744;2022-12-11T11:00:46;13.70;;;7.55;;
18512;SDS011;9385;48.380;9.744;2022-12-11T11:03:25;13.35;;;7.00;;
18512;SDS011;9385;48.380;9.744;2022-12-11T11:06:00;12.10;;;6.65;;
18512;SDS011;9385;48.380;9.744;2022-12-11T11:08:35;12.80;;;7.22;;
18512;SDS011;9385;48.380;9.744;2022-12-11T11:11:04;11.55;;;7.07;;
18512;SDS011;9385;48.380;9.744;2022-12-11T11:13:34;15.40;;;7.70;;
18512;SDS011;9385;48.380;9.744;2022-12-11T11:16:01;15.70;;;8.40;;
18512;SDS011;9385;48.380;9.744;2022-12-11T11:18:31;13.30;;;7.95;;
18512;SDS011;9385;48.380;9.744;2022-12-11T11:20:59;20.83;;;9.57;;
18512;SDS011;9385;48.380;9.744;2022-12-11T11:23:27;13.98;;;8.27;;
18512;SDS011;9385;48.380;9.744;2022-12-11T11:25:55;15.65;;;9.10;;
18512;SDS011;9385;48.380;9.744;2022-12-11T11:28:24;16.65;;;10.02;;
18512;SDS011;9385;48.380;9.744;2022-12-11T11:30:57;18.05;;;11.60;;
18512;SDS011;9385;48.380;9.744;2022-12-11T11:33:27;18.83;;;11.27;;
18512;SDS011;9385;48.380;9.744;2022-12-11T11:35:56;15.93;;;9.63;;
18512;SDS011;9385;48.380;9.744;2022-12-11T11:38:27;15.60;;;8.85;;
18512;SDS011;9385;48.380;9.744;2022-12-11T11:40:57;18.00;;;9.90;;
18512;SDS011;9385;48.380;9.744;2022-12-11T11:43:33;17.13;;;10.73;;
18512;SDS011;9385;48.380;9.744;2022-12-11T11:46:07;19.10;;;10.55;;
18512;SDS011;9385;48.380;9.744;2022-12-11T11:48:42;17.15;;;10.57;;
18512;SDS011;9385;48.380;9.744;2022-12-11T11:51:18;17.73;;;10.27;;
18512;SDS011;9385;48.380;9.744;2022-12-11T11:53:50;20.35;;;11.27;;
18512;SDS011;9385;48.380;9.744;2022-12-11T11:56:21;21.67;;;11.30;;
18512;SDS011;9385;48.380;9.744;2022-12-11T11:58:54;19.17;;;11.07;;
18512;SDS011;9385;48.380;9.744;2022-12-11T12:01:28;19.60;;;11.75;;
18512;SDS011;9385;48.380;9.744;2022-12-11T12:03:55;22.05;;;11.40;;
18512;SDS011;9385;48.380;9.744;2022-12-11T12:06:28;19.77;;;11.05;;
18512;SDS011;9385;48.380;9.744;2022-12-11T12:09:06;19.95;;;11.27;;
18512;SDS011;9385;48.380;9.744;2022-12-11T12:11:44;19.50;;;10.87;;
18512;SDS011;9385;48.380;9.744;2022-12-11T12:14:16;12.48;;;7.13;;
18512;SDS011;9385;48.380;9.744;2022-12-11T12:16:52;17.38;;;10.70;;
18512;SDS011;9385;48.380;9.744;2022-12-11T12:19:33;19.45;;;10.25;;
18512;SDS011;9385;48.380;9.744;2022-12-11T12:22:16;17.40;;;10.25;;
18512;SDS011;9385;48.380;9.744;2022-12-11T12:24:53;18.35;;;9.05;;
18512;SDS011;9385;48.380;9.744;2022-12-11T12:27:29;17.30;;;9.20;;
18512;SDS011;9385;48.380;9.744;2022-12-11T12:30:04;13.88;;;7.93;;
18512;SDS011;9385;48.380;9.744;2022-12-11T12:32:39;13.17;;;7.27;;
18512;SDS011;9385;48.380;9.744;2022-12-11T12:35:15;11.55;;;6.88;;
18512;SDS011;9385;48.380;9.744;2022-12-11T12:37:56;11.77;;;6.63;;
18512;SDS011;9385;48.380;9.744;2022-12-11T12:40:31;10.63;;;6.80;;
18512;SDS011;9385;48.380;9.744;2022-12-11T12:43:03;12.48;;;7.13;;
18512;SDS011;9385;48.380;9.744;2022-12-11T12:45:41;12.50;;;7.50;;
18512;SDS011;9385;48.380;9.744;2022-12-11T12:48:17;21.80;;;10.80;;
18512;SDS011;9385;48.380;9.744;2022-12-11T12:50:46;98.32;;;38.10;;
18512;SDS011;9385;48.380;9.744;2022-12-11T12:53:16;77.97;;;30.15;;
18512;SDS011;9385;48.380;9.744;2022-12-11T12:55:46;48.00;;;20.50;;
18512;SDS011;9385;48.380;9.744;2022-12-11T12:58:24;24.75;;;12.07;;
18512;SDS011;9385;48.380;9.744;2022-12-11T13:00:53;18.10;;;8.73;;
18512;SDS011;9385;48.380;9.744;2022-12-11T13:03:34;13.93;;;7.68;;
18512;SDS011;9385;48.380;9.744;2022-12-11T13:06:14;14.02;;;7.60;;
18512;SDS011;9385;48.380;9.744;2022-12-11T13:08:43;12.75;;;7.35;;
18512;SDS011;9385;48.380;9.744;2022-12-11T13:11:14;13.55;;;7.55;;
18512;SDS011;9385;48.380;9.744;2022-12-11T13:13:43;13.55;;;8.30;;
18512;SDS011;9385;48.380;9.744;2022-12-11T13:16:24;12.80;;;7.23;;
18512;SDS011;9385;48.380;9.744;2022-12-11T13:18:54;13.07;;;7.30;;
18512;SDS011;9385;48.380;9.744;2022-12-11T13:21:23;15.53;;;7.70;;
18512;SDS011;9385;48.380;9.744;2022-12-11T13:23:53;12.98;;;7.05;;
18512;SDS011;9385;48.380;9.744;2022-12-11T13:26:27;11.95;;;7.43;;
18512;SDS011;9385;48.380;9.744;2022-12-11T13:28:54;10.23;;;6.03;;
18512;SDS011;9385;48.380;9.744;2022-12-11T13:31:32;11.95;;;6.93;;
18512;SDS011;9385;48.380;9.744;2022-12-11T13:34:12;11.35;;;6.70;;
18512;SDS011;9385;48.380;9.744;2022-12-11T13:36:45;13.48;;;6.93;;
18512;SDS011;9385;48.380;9.744;2022-12-11T13:39:15;12.73;;;7.15;;
18512;SDS011;9385;48.380;9.744;2022-12-11T13:41:45;12.20;;;6.75;;
18512;SDS011;9385;48.380;9.744;2022-12-11T13:44:15;12.75;;;6.53;;
18512;SDS011;9385;48.380;9.744;2022-12-11T13:46:46;11.32;;;6.60;;
18512;SDS011;9385;48.380;9.744;2022-12-11T13:49:25;11.98;;;7.07;;
18512;SDS011;9385;48.380;9.744;2022-12-11T13:51:55;11.48;;;6.97;;
18512;SDS011;9385;48.380;9.744;2022-12-11T13:54:23;12.60;;;7.20;;
18512;SDS011;9385;48.380;9.744;2022-12-11T13:56:54;14.27;;;6.40;;
18512;SDS011;9385;48.380;9.744;2022-12-11T13:59:24;11.70;;;6.35;;
18512;SDS011;9385;48.380;9.744;2022-12-11T14:01:54;11.98;;;6.32;;
18512;SDS011;9385;48.380;9.744;2022-12-11T14:04:25;13.38;;;6.85;;
18512;SDS011;9385;48.380;9.744;2022-12-11T14:06:54;13.00;;;7.35;;
18512;SDS011;9385;48.380;9.744;2022-12-11T14:09:22;20.00;;;10.95;;
18512;SDS011;9385;48.380;9.744;2022-12-11T14:11:51;17.98;;;9.50;;
18512;SDS011;9385;48.380;9.744;2022-12-11T14:14:22;19.63;;;10.20;;
18512;SDS011;9385;48.380;9.744;2022-12-11T14:16:54;18.57;;;10.27;;
18512;SDS011;9385;48.380;9.744;2022-12-11T14:19:21;16.08;;;9.63;;
18512;SDS011;9385;48.380;9.744;2022-12-11T14:22:00;18.25;;;9.90;;
18512;SDS011;9385;48.380;9.744;2022-12-11T14:24:30;17.60;;;9.82;;
18512;SDS011;9385;48.380;9.744;2022-12-11T14:26:57;17.08;;;9.80;;
18512;SDS011;9385;48.380;9.744;2022-12-11T14:29:25;15.18;;;9.25;;
18512;SDS011;9385;48.380;9.744;2022-12-11T14:31:54;15.25;;;8.93;;
18512;SDS011;9385;48.380;9.744;2022-12-11T14:34:25;15.65;;;8.82;;
18512;SDS011;9385;48.380;9.744;2022-12-11T14:36:56;19.55;;;10.85;;
18512;SDS011;9385;48.380;9.744;2022-12-11T14:39:27;19.48;;;9.85;;
18512;SDS011;9385;48.380;9.744;2022-12-11T14:42:01;18.25;;;9.88;;
18512;SDS011;9385;48.380;9.744;2022-12-11T14:44:34;20.70;;;9.82;;
18512;SDS011;9385;48.380;9.744;2022-12-11T14:47:09;15.50;;;8.40;;
18512;SDS011;9385;48.380;9.744;2022-12-11T14:49:41;16.42;;;9.18;;
18512;SDS011;9385;48.380;9.744;2022-12-11T14:52:13;14.63;;;8.52;;
18512;SDS011;9385;48.380;9.744;2022-12-11T14:54:45;15.03;;;8.57;;
18512;SDS011;9385;48.380;9.744;2022-12-11T14:57:17;14.68;;;8.35;;
18512;SDS011;9385;48.380;9.744;2022-12-11T14:59:47;19.00;;;9.45;;
18512;SDS011;9385;48.380;9.744;2022-12-11T15:02:20;22.60;;;10.73;;
18512;SDS011;9385;48.380;9.744;2022-12-11T15:05:00;24.10;;;12.55;;